createdAt,value
2022-10-15T00:01:51.771Z,100.00
2022-10-15T00:04:20.492Z,100.00
2022-10-15T00:06:49.174Z,100.00
2022-10-15T00:09:19.279Z,100.00
2022-10-15T00:11:47.967Z,100.00
2022-10-15T00:14:16.690Z,100.00
2022-10-15T00:16:45.370Z,100.00
2022-10-15T00:19:14.102Z,100.00
2022-10-15T00:21:42.836Z,100.00
2022-10-15T00:24:11.626Z,100.00
2022-10-15T00:26:41.710Z,100.00
2022-10-15T00:29:10.407Z,100.00
2022-10-15T00:31:39.331Z,100.00
2022-10-15T00:34:08.218Z,100.00
2022-10-15T00:36:37.730Z,100.00
2022-10-15T00:39:07.812Z,100.00
2022-10-15T00:41:38.449Z,100.00
2022-10-15T00:44:40.814Z,100.00
2022-10-15T00:47:15.855Z,100.00
2022-10-15T00:49:46.500Z,100.00
2022-10-15T00:52:18.233Z,100.00
2022-10-15T00:54:51.081Z,100.00
2022-10-15T00:57:20.708Z,100.00
2022-10-15T00:59:52.428Z,100.00
2022-10-15T01:02:22.677Z,100.00
2022-10-15T01:04:51.946Z,100.00
2022-10-15T01:07:20.857Z,100.00
2022-10-15T01:09:50.815Z,100.00
2022-10-15T01:12:27.289Z,100.00
2022-10-15T01:15:03.450Z,100.00
2022-10-15T01:17:37.805Z,100.00
2022-10-15T01:20:26.866Z,100.00
2022-10-15T01:23:07.648Z,100.00
2022-10-15T01:25:43.152Z,100.00
2022-10-15T01:28:20.328Z,100.00
2022-10-15T01:30:55.932Z,100.00
2022-10-15T01:33:32.632Z,100.00
2022-10-15T01:36:09.351Z,100.00
2022-10-15T01:38:49.116Z,100.00
2022-10-15T01:41:21.471Z,100.00
2022-10-15T01:43:57.553Z,100.00
2022-10-15T01:46:31.752Z,100.00
2022-10-15T01:49:01.056Z,100.00
2022-10-15T01:51:31.828Z,100.00
2022-10-15T01:54:00.878Z,100.00
2022-10-15T01:56:29.643Z,100.00
2022-10-15T01:58:59.479Z,100.00
2022-10-15T02:01:29.874Z,100.00
2022-10-15T02:03:59.063Z,100.00
2022-10-15T02:06:31.218Z,100.00
2022-10-15T02:09:10.851Z,100.00
2022-10-15T02:11:47.435Z,100.00
2022-10-15T02:14:17.727Z,100.00
2022-10-15T02:16:52.069Z,100.00
2022-10-15T02:19:23.318Z,100.00
2022-10-15T02:21:55.019Z,100.00
2022-10-15T02:24:25.242Z,100.00
2022-10-15T02:26:55.998Z,100.00
2022-10-15T02:29:27.198Z,100.00
2022-10-15T02:31:58.246Z,100.00
2022-10-15T02:34:28.797Z,100.00
2022-10-15T02:37:01.675Z,100.00
2022-10-15T02:39:30.917Z,100.00
2022-10-15T02:41:59.653Z,100.00
2022-10-15T02:44:28.385Z,100.00
2022-10-15T02:46:58.798Z,100.00
2022-10-15T02:49:27.458Z,100.00
2022-10-15T02:51:56.291Z,100.00
2022-10-15T02:54:24.911Z,100.00
2022-10-15T02:56:53.568Z,100.00
2022-10-15T02:59:22.520Z,100.00
2022-10-15T03:01:51.143Z,100.00
2022-10-15T03:04:21.332Z,100.00
2022-10-15T03:06:50.413Z,100.00
2022-10-15T03:09:19.267Z,100.00
2022-10-15T03:11:47.938Z,100.00
2022-10-15T03:14:16.679Z,100.00
2022-10-15T03:16:45.370Z,100.00
2022-10-15T03:19:13.984Z,100.00
2022-10-15T03:21:44.014Z,100.00
2022-10-15T03:24:12.644Z,100.00
2022-10-15T03:26:41.243Z,100.00
2022-10-15T03:29:09.954Z,100.00
2022-10-15T03:31:38.571Z,100.00
2022-10-15T03:34:07.218Z,100.00
2022-10-15T03:36:35.832Z,100.00
2022-10-15T03:39:05.894Z,100.00
2022-10-15T03:41:34.717Z,100.00
2022-10-15T03:44:03.862Z,100.00
2022-10-15T03:46:32.628Z,100.00
2022-10-15T03:49:01.816Z,100.00
2022-10-15T03:51:31.644Z,100.00
2022-10-15T03:54:00.591Z,100.00
2022-10-15T03:56:30.685Z,100.00
2022-10-15T03:58:59.312Z,100.00
2022-10-15T04:01:28.079Z,100.00
2022-10-15T04:03:56.788Z,100.00
2022-10-15T04:06:25.459Z,100.00
2022-10-15T04:08:54.102Z,100.00
2022-10-15T04:11:22.807Z,100.00
2022-10-15T04:13:52.777Z,100.00
2022-10-15T04:16:21.486Z,100.00
2022-10-15T04:18:50.227Z,100.00
2022-10-15T04:21:18.932Z,100.00
2022-10-15T04:23:47.673Z,100.00
2022-10-15T04:26:16.341Z,100.00
2022-10-15T04:28:45.082Z,100.00
2022-10-15T04:31:15.563Z,100.00
2022-10-15T04:33:44.162Z,100.00
2022-10-15T04:36:14.472Z,100.00
2022-10-15T04:38:43.225Z,100.00
2022-10-15T04:41:12.932Z,100.00
2022-10-15T04:43:41.700Z,100.00
2022-10-15T04:46:10.534Z,100.00
2022-10-15T04:48:43.124Z,100.00
2022-10-15T04:51:13.875Z,100.00
2022-10-15T04:53:42.707Z,100.00
2022-10-15T04:56:13.726Z,100.00
2022-10-15T04:58:42.937Z,100.00
2022-10-15T05:01:13.895Z,100.00
2022-10-15T05:03:45.564Z,100.00
2022-10-15T05:06:15.414Z,100.00
2022-10-15T05:08:44.266Z,100.00
2022-10-15T05:11:14.733Z,100.00
2022-10-15T05:13:43.515Z,100.00
2022-10-15T05:16:14.304Z,100.00
2022-10-15T05:18:45.508Z,100.00
2022-10-15T05:21:15.190Z,100.00
2022-10-15T05:23:44.147Z,100.00
2022-10-15T05:26:14.356Z,100.00
2022-10-15T05:28:43.101Z,100.00
2022-10-15T05:31:18.402Z,100.00
2022-10-15T05:33:49.377Z,100.00
2022-10-15T05:36:20.131Z,100.00
2022-10-15T05:38:50.648Z,100.00
2022-10-15T05:41:19.499Z,100.00
2022-10-15T05:43:48.458Z,100.00
2022-10-15T05:46:17.231Z,100.00
2022-10-15T05:48:50.885Z,100.00
2022-10-15T05:51:19.748Z,100.00
2022-10-15T05:53:48.554Z,100.00
2022-10-15T05:56:17.513Z,100.00
2022-10-15T05:58:46.196Z,100.00
2022-10-15T06:01:15.011Z,100.00
2022-10-15T06:03:44.479Z,100.00
2022-10-15T06:06:19.433Z,100.00
2022-10-15T06:08:48.711Z,100.00
2022-10-15T06:11:18.230Z,100.00
2022-10-15T06:13:47.833Z,100.00
2022-10-15T06:16:20.992Z,100.00
2022-10-15T06:18:53.412Z,100.00
2022-10-15T06:21:23.420Z,100.00
2022-10-15T06:23:52.043Z,100.00
2022-10-15T06:26:20.910Z,100.00
2022-10-15T06:28:49.602Z,100.00
2022-10-15T06:31:18.304Z,100.00
2022-10-15T06:33:46.928Z,100.00
2022-10-15T06:36:15.711Z,100.00
2022-10-15T06:38:48.084Z,100.00
2022-10-15T06:41:16.986Z,100.00
2022-10-15T06:43:46.058Z,100.00
2022-10-15T06:46:14.717Z,100.00
2022-10-15T06:48:43.418Z,100.00
2022-10-15T06:51:12.454Z,100.00
2022-10-15T06:53:43.623Z,100.00
2022-10-15T06:56:16.190Z,100.00
2022-10-15T06:58:44.797Z,100.00
2022-10-15T07:01:13.902Z,100.00
2022-10-15T07:03:42.489Z,100.00
2022-10-15T07:06:11.144Z,100.00
2022-10-15T07:08:39.786Z,100.00
2022-10-15T07:11:09.735Z,100.00
2022-10-15T07:13:39.973Z,100.00
2022-10-15T07:16:10.051Z,100.00
2022-10-15T07:18:39.453Z,100.00
2022-10-15T07:21:12.023Z,100.00
2022-10-15T07:23:40.732Z,100.00
2022-10-15T07:26:09.395Z,100.00
2022-10-15T07:28:39.549Z,100.00
2022-10-15T07:31:08.802Z,100.00
2022-10-15T07:33:38.425Z,100.00
2022-10-15T07:36:09.478Z,100.00
2022-10-15T07:38:38.468Z,100.00
2022-10-15T07:41:08.168Z,100.00
2022-10-15T07:43:39.071Z,100.00
2022-10-15T07:46:07.686Z,100.00
2022-10-15T07:48:36.570Z,100.00
2022-10-15T07:51:07.185Z,100.00
2022-10-15T07:53:35.993Z,100.00
2022-10-15T07:56:06.856Z,100.00
2022-10-15T07:58:37.644Z,100.00
2022-10-15T08:01:09.191Z,100.00
2022-10-15T08:03:38.504Z,100.00
2022-10-15T08:06:08.708Z,100.00
2022-10-15T08:08:38.041Z,100.00
2022-10-15T08:11:07.959Z,100.00
2022-10-15T08:13:38.939Z,100.00
2022-10-15T08:16:09.082Z,100.00
2022-10-15T08:18:38.009Z,100.00
2022-10-15T08:21:08.027Z,100.00
2022-10-15T08:23:37.314Z,100.00
2022-10-15T08:26:06.196Z,100.00
2022-10-15T08:28:36.000Z,100.00
2022-10-15T08:31:06.067Z,100.00
2022-10-15T08:33:36.953Z,100.00
2022-10-15T08:36:06.292Z,100.00
2022-10-15T08:38:35.476Z,100.00
2022-10-15T08:41:07.564Z,100.00
2022-10-15T08:43:38.543Z,100.00
2022-10-15T08:46:10.069Z,100.00
2022-10-15T08:48:43.694Z,100.00
2022-10-15T08:51:14.954Z,100.00
2022-10-15T08:53:45.779Z,100.00
2022-10-15T08:56:18.432Z,100.00
2022-10-15T08:58:52.504Z,100.00
2022-10-15T09:01:26.333Z,100.00
2022-10-15T09:04:09.214Z,100.00
2022-10-15T09:06:39.316Z,100.00
2022-10-15T09:09:15.264Z,100.00
2022-10-15T09:11:51.676Z,100.00
2022-10-15T09:14:25.483Z,100.00
2022-10-15T09:16:54.220Z,100.00
2022-10-15T09:19:27.199Z,100.00
2022-10-15T09:21:56.346Z,100.00
2022-10-15T09:24:29.860Z,100.00
2022-10-15T09:27:06.689Z,100.00
2022-10-15T09:29:41.531Z,100.00
2022-10-15T09:32:15.879Z,100.00
2022-10-15T09:34:50.029Z,100.00
2022-10-15T09:37:22.718Z,100.00
2022-10-15T09:39:58.530Z,100.00
2022-10-15T09:42:31.260Z,100.00
2022-10-15T09:45:01.842Z,100.00
2022-10-15T09:47:32.398Z,100.00
2022-10-15T09:50:02.758Z,100.00
2022-10-15T09:52:45.487Z,100.00
2022-10-15T09:55:27.510Z,100.00
2022-10-15T09:57:58.501Z,100.00
2022-10-15T10:00:27.223Z,100.00
2022-10-15T10:03:07.033Z,100.00
2022-10-15T10:05:38.988Z,100.00
2022-10-15T10:08:15.487Z,100.00
2022-10-15T10:10:46.723Z,100.00
2022-10-15T10:13:24.688Z,96.16
2022-10-15T10:15:58.326Z,93.32
2022-10-15T10:18:28.370Z,93.34
2022-10-15T10:21:00.108Z,94.46
2022-10-15T10:23:34.925Z,94.75
2022-10-15T10:26:04.680Z,95.79
2022-10-15T10:28:37.308Z,95.99
2022-10-15T10:31:09.171Z,90.01
2022-10-15T10:33:43.227Z,88.98
2022-10-15T10:36:22.621Z,90.34
2022-10-15T10:39:03.219Z,89.07
2022-10-15T10:41:50.505Z,93.11
2022-10-15T10:44:22.185Z,90.41
2022-10-15T10:47:03.757Z,88.35
2022-10-15T10:49:33.549Z,83.79
2022-10-15T10:52:03.616Z,84.92
2022-10-15T10:54:33.607Z,88.03
2022-10-15T10:57:02.377Z,86.39
2022-10-15T10:59:34.627Z,86.04
2022-10-15T11:02:06.334Z,88.07
2022-10-15T11:04:36.538Z,83.21
2022-10-15T11:07:08.057Z,80.94
2022-10-15T11:09:46.570Z,81.35
2022-10-15T11:12:32.495Z,82.11
2022-10-15T11:15:09.799Z,81.61
2022-10-15T11:17:48.301Z,81.45
2022-10-15T11:20:30.515Z,83.74
2022-10-15T11:23:21.586Z,84.23
2022-10-15T11:26:02.451Z,79.77
2022-10-15T11:28:43.121Z,79.36
2022-10-15T11:31:17.036Z,79.21
2022-10-15T11:33:56.108Z,78.64
2022-10-15T11:36:37.119Z,82.85
2022-10-15T11:39:20.240Z,81.32
2022-10-15T11:41:52.993Z,76.20
2022-10-15T11:44:28.733Z,74.27
2022-10-15T11:47:06.018Z,74.16
2022-10-15T11:49:42.603Z,73.04
2022-10-15T11:52:28.059Z,76.16
2022-10-15T11:55:04.377Z,73.17
2022-10-15T11:57:35.348Z,74.94
2022-10-15T12:00:07.651Z,73.68
2022-10-15T12:02:38.075Z,73.67
2022-10-15T12:05:09.526Z,74.33
2022-10-15T12:07:41.873Z,71.07
2022-10-15T12:10:22.624Z,72.98
2022-10-15T12:12:54.763Z,70.67
2022-10-15T12:15:29.077Z,71.64
2022-10-15T12:18:04.435Z,72.27
2022-10-15T12:20:33.052Z,77.41
2022-10-15T12:23:03.051Z,71.78
2022-10-15T12:25:45.750Z,75.24
2022-10-15T12:28:19.640Z,75.69
2022-10-15T12:30:59.584Z,73.99
2022-10-15T12:33:34.008Z,73.33
2022-10-15T12:36:09.031Z,72.30
2022-10-15T12:38:39.863Z,72.58
2022-10-15T12:41:11.164Z,72.30
2022-10-15T12:43:44.053Z,74.07
2022-10-15T12:46:13.365Z,76.61
2022-10-15T12:48:46.199Z,75.22
2022-10-15T12:51:39.390Z,74.16
2022-10-15T12:54:37.613Z,78.58
2022-10-15T12:57:39.598Z,78.76
2022-10-15T13:00:38.139Z,83.74
2022-10-15T13:03:35.820Z,79.53
2022-10-15T13:06:25.189Z,78.09
2022-10-15T13:08:56.384Z,81.77
2022-10-15T13:11:26.744Z,79.76
2022-10-15T13:13:59.887Z,79.64
2022-10-15T13:16:32.265Z,84.91
2022-10-15T13:19:01.050Z,85.07
2022-10-15T13:21:52.222Z,85.75
2022-10-15T13:24:22.730Z,86.65
2022-10-15T13:26:51.748Z,88.86
2022-10-15T13:29:22.259Z,85.94
2022-10-15T13:31:53.241Z,89.73
2022-10-15T13:34:27.437Z,89.20
2022-10-15T13:36:58.221Z,88.09
2022-10-15T13:39:31.937Z,89.18
2022-10-15T13:42:09.774Z,89.35
2022-10-15T13:44:38.741Z,90.58
2022-10-15T13:47:24.600Z,91.33
2022-10-15T13:49:53.300Z,88.34
2022-10-15T13:52:23.226Z,89.60
2022-10-15T13:54:52.230Z,90.00
2022-10-15T13:57:20.984Z,93.42
2022-10-15T13:59:49.634Z,95.18
2022-10-15T14:02:20.706Z,97.43
2022-10-15T14:04:51.061Z,96.75
2022-10-15T14:07:25.058Z,95.52
2022-10-15T14:09:54.289Z,96.98
2022-10-15T14:12:23.544Z,96.75
2022-10-15T14:14:52.186Z,93.68
2022-10-15T14:17:24.557Z,91.89
2022-10-15T14:20:21.619Z,94.12
2022-10-15T14:22:49.553Z,94.28
2022-10-15T14:25:24.783Z,95.24
2022-10-15T14:27:54.956Z,96.51
2022-10-15T14:30:27.486Z,95.93
2022-10-15T14:32:56.727Z,90.83
2022-10-15T14:35:31.001Z,90.92
2022-10-15T14:38:01.693Z,90.92
2022-10-15T14:40:30.544Z,93.19
2022-10-15T14:43:04.078Z,95.17
2022-10-15T14:45:37.355Z,96.76
2022-10-15T14:48:10.485Z,95.37
2022-10-15T14:50:44.264Z,93.30
2022-10-15T14:53:18.599Z,92.57
2022-10-15T14:55:50.870Z,94.42
2022-10-15T14:58:21.373Z,92.29
2022-10-15T15:00:56.158Z,94.31
2022-10-15T15:03:28.428Z,89.96
2022-10-15T15:05:59.058Z,90.59
2022-10-15T15:08:28.233Z,90.33
2022-10-15T15:10:58.201Z,89.25
2022-10-15T15:13:28.525Z,86.02
2022-10-15T15:15:57.171Z,87.21
2022-10-15T15:18:25.804Z,89.09
2022-10-15T15:21:04.458Z,84.33
2022-10-15T15:23:33.746Z,83.46
2022-10-15T15:26:02.809Z,88.69
2022-10-15T15:28:31.509Z,89.24
2022-10-15T15:31:01.664Z,91.77
2022-10-15T15:33:30.387Z,93.75
2022-10-15T15:36:05.053Z,91.13
2022-10-15T15:41:12.650Z,88.21
2022-10-15T15:43:41.655Z,86.32
2022-10-15T15:46:10.530Z,85.16
2022-10-15T15:48:39.300Z,85.81
2022-10-15T15:51:17.177Z,83.92
2022-10-15T15:53:45.792Z,83.98
2022-10-15T15:56:14.896Z,82.28
2022-10-15T15:58:43.663Z,80.18
2022-10-15T16:01:12.569Z,79.61
2022-10-15T16:03:41.251Z,79.53
2022-10-15T16:06:12.184Z,79.38
2022-10-15T16:08:40.856Z,79.77
2022-10-15T16:11:09.561Z,79.83
2022-10-15T16:13:38.363Z,78.62
2022-10-15T16:16:07.362Z,79.09
2022-10-15T16:18:37.196Z,78.37
2022-10-15T16:21:06.055Z,79.08
2022-10-15T16:23:36.076Z,79.24
2022-10-15T16:26:04.709Z,80.74
2022-10-15T16:28:33.390Z,79.46
2022-10-15T16:31:15.180Z,80.21
2022-10-15T16:33:43.802Z,80.77
2022-10-15T16:36:12.525Z,80.40
2022-10-15T16:38:43.118Z,81.44
2022-10-15T16:41:12.541Z,81.15
2022-10-15T16:43:41.294Z,80.19
2022-10-15T16:46:10.005Z,82.35
2022-10-15T16:48:38.615Z,82.35
2022-10-15T16:51:09.350Z,82.64
2022-10-15T16:53:39.261Z,81.61
2022-10-15T16:56:10.975Z,81.04
2022-10-15T16:58:39.692Z,81.53
2022-10-15T17:01:09.941Z,81.52
2022-10-15T17:03:39.746Z,81.43
2022-10-15T17:06:09.692Z,82.35
2022-10-15T17:08:41.856Z,85.45
2022-10-15T17:11:12.863Z,83.63
2022-10-15T17:13:41.681Z,84.13
2022-10-15T17:16:12.811Z,82.99
2022-10-15T17:18:43.806Z,82.38
2022-10-15T17:21:14.115Z,82.57
2022-10-15T17:23:43.532Z,82.79
2022-10-15T17:26:14.926Z,85.36
2022-10-15T17:28:45.122Z,85.00
2022-10-15T17:31:17.652Z,85.06
2022-10-15T17:33:47.551Z,84.83
2022-10-15T17:36:18.382Z,84.63
2022-10-15T17:38:47.369Z,85.01
2022-10-15T17:41:19.310Z,86.10
2022-10-15T17:43:48.709Z,87.66
2022-10-15T17:46:19.390Z,88.09
2022-10-15T17:48:48.486Z,88.71
2022-10-15T17:51:19.369Z,87.97
2022-10-15T17:53:50.666Z,87.71
2022-10-15T17:56:23.123Z,89.18
2022-10-15T17:58:52.157Z,90.79
2022-10-15T18:01:33.496Z,91.41
2022-10-15T18:04:12.386Z,91.18
2022-10-15T18:06:44.651Z,90.74
2022-10-15T18:09:13.373Z,91.01
2022-10-15T18:11:45.553Z,91.78
2022-10-15T18:14:14.282Z,90.73
2022-10-15T18:16:43.509Z,91.74
2022-10-15T18:19:12.429Z,90.69
2022-10-15T18:21:43.410Z,91.32
2022-10-15T18:24:14.260Z,92.45
2022-10-15T18:26:45.088Z,92.06
2022-10-15T18:29:13.841Z,90.36
2022-10-15T18:31:42.722Z,91.60
2022-10-15T18:34:11.339Z,92.71
2022-10-15T18:36:41.949Z,92.62
2022-10-15T18:39:11.202Z,92.06
2022-10-15T18:41:40.905Z,91.70
2022-10-15T18:44:15.705Z,91.77
2022-10-15T18:46:45.444Z,92.09
2022-10-15T18:49:16.758Z,89.52
2022-10-15T18:51:51.654Z,89.97
2022-10-15T18:54:21.103Z,90.25
2022-10-15T18:56:49.891Z,89.92
2022-10-15T18:59:22.572Z,90.10
2022-10-15T19:01:51.390Z,89.81
2022-10-15T19:04:23.174Z,90.82
2022-10-15T19:06:53.365Z,91.18
2022-10-15T19:09:23.614Z,88.76
2022-10-15T19:11:54.621Z,89.36
2022-10-15T19:14:26.038Z,90.15
2022-10-15T19:16:55.622Z,91.75
2022-10-15T19:19:25.950Z,91.81
2022-10-15T19:21:56.141Z,89.91
2022-10-15T19:24:25.387Z,87.46
2022-10-15T19:26:56.003Z,90.22
2022-10-15T19:29:27.646Z,88.25
2022-10-15T19:31:57.990Z,90.41
2022-10-15T19:34:27.274Z,92.21
2022-10-15T19:36:56.045Z,92.11
2022-10-15T19:39:25.374Z,92.67
2022-10-15T19:41:54.432Z,92.40
2022-10-15T19:44:25.728Z,91.23
2022-10-15T19:46:58.157Z,90.46
2022-10-15T19:49:27.144Z,90.77
2022-10-15T19:51:55.840Z,90.56
2022-10-15T19:56:54.104Z,89.83
2022-10-15T19:59:22.747Z,90.59
2022-10-15T20:01:51.424Z,91.06
2022-10-15T20:04:21.486Z,91.47
2022-10-15T20:06:52.585Z,92.71
2022-10-15T20:09:21.287Z,92.69
2022-10-15T20:11:50.040Z,92.81
2022-10-15T20:14:18.701Z,94.33
2022-10-15T20:16:47.347Z,94.52
2022-10-15T20:19:16.023Z,94.25
2022-10-15T20:21:46.106Z,94.85
2022-10-15T20:24:14.832Z,94.90
2022-10-15T20:26:43.472Z,94.41
2022-10-15T20:29:12.208Z,95.40
2022-10-15T20:31:40.951Z,96.25
2022-10-15T20:34:09.676Z,96.61
2022-10-15T20:36:41.248Z,95.60
2022-10-15T20:39:11.696Z,95.77
2022-10-15T20:41:40.373Z,95.80
2022-10-15T20:44:11.878Z,96.25
2022-10-15T20:46:42.994Z,96.41
2022-10-15T20:49:13.748Z,96.38
2022-10-15T20:51:42.993Z,95.95
2022-10-15T20:54:14.297Z,95.91
2022-10-15T20:56:43.585Z,96.87
2022-10-15T20:59:12.940Z,97.37
2022-10-15T21:01:41.822Z,97.97
2022-10-15T21:04:10.939Z,98.34
2022-10-15T21:06:39.728Z,97.41
2022-10-15T21:09:08.489Z,97.91
2022-10-15T21:11:42.654Z,97.85
2022-10-15T21:14:12.213Z,97.95
2022-10-15T21:16:41.273Z,98.70
2022-10-15T21:19:10.122Z,99.18
2022-10-15T21:21:39.327Z,99.23
2022-10-15T21:24:08.170Z,98.79
2022-10-15T21:26:36.922Z,99.08
2022-10-15T21:29:11.317Z,99.08
2022-10-15T21:31:39.953Z,98.28
2022-10-15T21:34:08.631Z,98.38
2022-10-15T21:36:37.386Z,98.41
2022-10-15T21:39:07.949Z,97.85
2022-10-15T21:41:38.759Z,99.05
2022-10-15T21:44:09.316Z,98.91
2022-10-15T21:46:40.679Z,98.80
2022-10-15T21:49:10.094Z,99.19
2022-10-15T21:51:39.218Z,99.15
2022-10-15T21:54:09.234Z,99.42
2022-10-15T21:56:38.490Z,99.91
2022-10-15T21:59:08.580Z,100.00
2022-10-15T22:01:38.667Z,100.00
2022-10-15T22:04:08.884Z,100.00
2022-10-15T22:06:39.891Z,100.00
2022-10-15T22:09:09.340Z,100.00
2022-10-15T22:11:39.468Z,100.00
2022-10-15T22:14:11.795Z,100.00
2022-10-15T22:16:41.111Z,100.00
2022-10-15T22:19:12.056Z,100.00
2022-10-15T22:21:40.761Z,100.00
2022-10-15T22:24:13.656Z,100.00
2022-10-15T22:26:43.947Z,100.00
2022-10-15T22:29:18.372Z,99.93
2022-10-15T22:31:47.181Z,100.00
2022-10-15T22:34:16.198Z,100.00
2022-10-15T22:36:45.102Z,100.00
2022-10-15T22:39:14.925Z,100.00
2022-10-15T22:41:45.313Z,100.00
2022-10-15T22:44:16.693Z,100.00
2022-10-15T22:46:48.995Z,100.00
2022-10-15T22:49:19.486Z,100.00
2022-10-15T22:51:48.147Z,100.00
2022-10-15T22:54:17.689Z,100.00
2022-10-15T22:56:47.009Z,100.00
2022-10-15T22:59:17.324Z,100.00
2022-10-15T23:01:46.337Z,100.00
2022-10-15T23:04:16.202Z,100.00
2022-10-15T23:06:45.043Z,100.00
2022-10-15T23:09:17.508Z,100.00
2022-10-15T23:11:46.847Z,100.00
2022-10-15T23:14:18.258Z,100.00
2022-10-15T23:16:48.047Z,100.00
2022-10-15T23:19:18.199Z,100.00
2022-10-15T23:21:48.617Z,100.00
2022-10-15T23:24:18.365Z,100.00
2022-10-15T23:26:47.330Z,100.00
2022-10-15T23:29:18.887Z,100.00
2022-10-15T23:31:48.243Z,100.00
2022-10-15T23:34:19.292Z,100.00
2022-10-15T23:36:48.066Z,100.00
2022-10-15T23:39:18.784Z,100.00
2022-10-15T23:41:47.515Z,100.00
2022-10-15T23:44:17.733Z,100.00
2022-10-15T23:46:46.967Z,100.00
2022-10-15T23:49:15.571Z,100.00
2022-10-15T23:51:44.362Z,100.00
2022-10-15T23:54:15.989Z,100.00
2022-10-15T23:56:44.858Z,100.00
2022-10-15T23:59:13.553Z,100.00
